Saginaw, Oregon
Current Conditions -  °F | °C
As of 11:54 AM on Tuesday 21 Oct 2014 (Local Time) from KEUG Reporting Station
Broken Clouds Broken Clouds  
Wind Chill: 61°   Ceiling: 6500
Heat Index: 61°   Visibility: 10mi
Dew Point: 50°   Wind: 18mph
Humidity: 67%   Direction: 180°S
Pressure: 30.04"   Gusts: NA
Location:  43.83°N, 123.04°W
Report Text: KEUG 211854Z 18016KT 10SM SCT040 BKN065 BKN090 16/10 A3004 RMK AO2 SLP173 T01610100
Loading
Personal Weather Stations






























Interactive Weather Map
Tropical Storm Tracking
New forecast layout! Learn more

10-Day Weather Forecast

Advertisements
Track Severe Weather on mobile